Time;durP1;ratioP1;P1;durP2;ratioP2;P2;SDS_P1;SDS_P2;PMS_P1;PMS_P2;Temp;Humidity;BMP_temperature;BMP_pressure;BME280_temperature;BME280_humidity;BME280_pressure;Samples;Min_cycle;Max_cycle;Signal;HPM_P1;HPM_P2
2023/05/04 00:02:02;;;;;;;9.88;5.10;;;;;;;;;;5130789;27;20057;-78
2023/05/04 00:04:28;;;;;;;10.48;4.82;;;;;;;;;;5108686;27;20047;-81
2023/05/04 00:06:54;;;;;;;12.57;4.55;;;;;;;;;;5126362;27;20103;-79
2023/05/04 00:09:20;;;;;;;9.95;4.32;;;;;;;;;;5150501;27;20031;-80
2023/05/04 00:11:47;;;;;;;9.18;4.57;;;;;;;;;;5133278;27;20035;-81
2023/05/04 00:14:13;;;;;;;9.65;4.97;;;;;;;;;;5132334;27;20140;-70
2023/05/04 00:16:39;;;;;;;10.20;4.57;;;;;;;;;;5158111;27;20083;-71
2023/05/04 00:19:05;;;;;;;10.70;4.65;;;;;;;;;;5158355;27;20543;-70
2023/05/04 00:21:31;;;;;;;11.20;4.75;;;;;;;;;;5156371;27;20049;-73
2023/05/04 00:23:57;;;;;;;11.10;4.55;;;;;;;;;;5134032;27;20142;-69
2023/05/04 00:26:23;;;;;;;10.43;4.90;;;;;;;;;;5132989;27;20035;-70
2023/05/04 00:28:49;;;;;;;9.88;4.90;;;;;;;;;;5150461;27;20043;-70
2023/05/04 00:31:17;;;;;;;8.77;4.57;;;;;;;;;;5138918;27;20038;-70
2023/05/04 00:33:44;;;;;;;10.25;4.90;;;;;;;;;;5139525;27;20038;-79
2023/05/04 00:36:10;;;;;;;14.77;5.13;;;;;;;;;;5136386;27;20130;-75
2023/05/04 00:38:52;;;;;;;11.38;4.35;;;;;;;;;;5118864;27;20031;-73
2023/05/04 00:41:19;;;;;;;9.52;4.50;;;;;;;;;;5133097;27;20043;-69
2023/05/04 00:43:45;;;;;;;10.45;4.90;;;;;;;;;;5146782;27;20066;-80
2023/05/04 00:46:15;;;;;;;8.73;4.97;;;;;;;;;;5121992;27;20046;-72
2023/05/04 00:48:42;;;;;;;11.98;4.57;;;;;;;;;;5139074;27;20074;-72
2023/05/04 00:51:09;;;;;;;9.32;4.75;;;;;;;;;;5157658;27;20098;-79
2023/05/04 00:53:36;;;;;;;10.98;4.70;;;;;;;;;;5138711;27;20514;-76
2023/05/04 00:56:03;;;;;;;6.80;4.05;;;;;;;;;;5126665;27;20065;-80
2023/05/04 00:58:31;;;;;;;11.57;5.15;;;;;;;;;;5132484;27;20037;-72
2023/05/04 01:00:57;;;;;;;10.30;4.93;;;;;;;;;;5128935;27;20038;-70
2023/05/04 01:03:23;;;;;;;11.75;4.88;;;;;;;;;;5154788;27;20038;-71
2023/05/04 01:06:02;;;;;;;13.57;5.18;;;;;;;;;;5145515;27;20035;-70
2023/05/04 01:08:31;;;;;;;12.73;4.95;;;;;;;;;;5156953;27;20077;-69
2023/05/04 01:11:07;;;;;;;11.23;4.60;;;;;;;;;;5156950;27;20051;-70
2023/05/04 01:13:34;;;;;;;14.27;6.00;;;;;;;;;;5154811;27;20035;-70
2023/05/04 01:16:01;;;;;;;10.73;4.68;;;;;;;;;;5100972;27;20061;-71
2023/05/04 01:18:28;;;;;;;11.52;4.93;;;;;;;;;;5117863;27;20125;-72
2023/05/04 01:20:54;;;;;;;11.60;5.03;;;;;;;;;;5138512;27;20053;-72
2023/05/04 01:23:21;;;;;;;10.98;5.18;;;;;;;;;;5155400;27;20042;-71
2023/05/04 01:25:53;;;;;;;10.75;4.70;;;;;;;;;;5134278;27;20050;-72
2023/05/04 01:28:22;;;;;;;10.57;4.78;;;;;;;;;;5136566;27;20035;-70
2023/05/04 01:30:51;;;;;;;11.25;5.13;;;;;;;;;;5118476;27;20395;-71
2023/05/04 01:33:17;;;;;;;9.40;5.00;;;;;;;;;;5156943;27;20518;-70
2023/05/04 01:35:44;;;;;;;10.93;4.60;;;;;;;;;;5154656;27;20035;-73
2023/05/04 01:38:10;;;;;;;12.07;5.43;;;;;;;;;;5126084;27;20038;-73
2023/05/04 01:40:36;;;;;;;9.13;4.82;;;;;;;;;;5123308;27;20051;-79
2023/05/04 01:43:03;;;;;;;10.13;5.20;;;;;;;;;;5138334;27;20038;-79
2023/05/04 01:45:29;;;;;;;10.63;5.05;;;;;;;;;;5156702;27;20030;-79
2023/05/04 01:47:55;;;;;;;11.77;5.10;;;;;;;;;;5116624;27;20041;-69
2023/05/04 01:50:21;;;;;;;11.10;5.03;;;;;;;;;;5146196;27;20117;-72
2023/05/04 01:52:47;;;;;;;12.13;5.55;;;;;;;;;;5137574;27;20103;-70
2023/05/04 01:55:13;;;;;;;11.80;5.30;;;;;;;;;;5156373;27;20034;-72
2023/05/04 01:57:39;;;;;;;12.50;5.88;;;;;;;;;;5123391;27;20039;-80
2023/05/04 02:00:05;;;;;;;10.52;4.93;;;;;;;;;;5131474;27;20074;-69
2023/05/04 02:02:31;;;;;;;12.38;5.30;;;;;;;;;;5150735;27;20043;-75
2023/05/04 02:04:57;;;;;;;11.93;5.53;;;;;;;;;;5142795;27;20069;-70
2023/05/04 02:07:24;;;;;;;9.98;5.10;;;;;;;;;;5155038;27;20045;-72
2023/05/04 02:09:50;;;;;;;13.45;5.20;;;;;;;;;;5109437;27;20043;-71
2023/05/04 02:12:16;;;;;;;13.75;5.43;;;;;;;;;;5137142;27;20042;-71
2023/05/04 02:14:42;;;;;;;12.38;5.63;;;;;;;;;;5137374;27;20087;-79
2023/05/04 02:17:08;;;;;;;15.13;5.28;;;;;;;;;;5138215;27;20058;-81
2023/05/04 02:19:34;;;;;;;13.75;5.65;;;;;;;;;;5129543;27;20115;-72
2023/05/04 02:22:00;;;;;;;12.13;5.30;;;;;;;;;;5155773;27;20042;-70
2023/05/04 02:24:26;;;;;;;9.45;4.90;;;;;;;;;;5137831;27;20426;-73
2023/05/04 02:26:52;;;;;;;14.52;5.80;;;;;;;;;;5155881;27;20046;-72
2023/05/04 02:29:18;;;;;;;10.50;5.00;;;;;;;;;;5137435;27;20070;-80
2023/05/04 02:31:44;;;;;;;9.85;5.40;;;;;;;;;;5136942;27;20502;-81
2023/05/04 02:34:11;;;;;;;11.15;5.93;;;;;;;;;;5133967;27;20088;-80
2023/05/04 02:36:37;;;;;;;11.57;5.50;;;;;;;;;;5143421;27;20027;-80
2023/05/04 02:39:03;;;;;;;16.08;6.15;;;;;;;;;;5137008;27;20061;-69
2023/05/04 02:41:30;;;;;;;18.25;5.88;;;;;;;;;;5112601;27;20082;-72
2023/05/04 02:43:56;;;;;;;9.77;5.53;;;;;;;;;;5116985;27;20460;-72
2023/05/04 02:46:24;;;;;;;11.13;5.35;;;;;;;;;;5136520;27;20368;-71
2023/05/04 02:48:50;;;;;;;12.43;5.60;;;;;;;;;;5136474;27;20490;-72
2023/05/04 02:51:16;;;;;;;10.23;5.38;;;;;;;;;;5105178;27;20090;-73
2023/05/04 02:53:42;;;;;;;10.52;5.68;;;;;;;;;;5136719;27;20041;-71
2023/05/04 02:56:08;;;;;;;13.43;5.78;;;;;;;;;;5122230;27;20043;-70
2023/05/04 02:58:34;;;;;;;15.60;6.40;;;;;;;;;;5136636;27;20475;-71
2023/05/04 03:01:01;;;;;;;12.73;6.18;;;;;;;;;;5136775;27;20066;-70
2023/05/04 03:03:27;;;;;;;16.08;6.97;;;;;;;;;;5148849;27;20061;-70
2023/05/04 03:05:53;;;;;;;12.10;6.10;;;;;;;;;;5134048;27;20046;-77
2023/05/04 03:08:19;;;;;;;15.63;6.90;;;;;;;;;;5121786;27;20031;-70
2023/05/04 03:10:45;;;;;;;13.27;6.35;;;;;;;;;;5154817;27;20079;-81
2023/05/04 03:13:11;;;;;;;14.55;6.05;;;;;;;;;;5122171;27;20039;-69
2023/05/04 03:15:37;;;;;;;15.68;6.68;;;;;;;;;;5154710;27;20440;-80
2023/05/04 03:18:03;;;;;;;13.32;6.20;;;;;;;;;;5154832;27;20045;-78
2023/05/04 03:20:29;;;;;;;14.27;6.45;;;;;;;;;;5148540;27;20032;-81
2023/05/04 03:22:55;;;;;;;14.32;6.57;;;;;;;;;;5128287;27;20051;-75
2023/05/04 03:25:21;;;;;;;15.07;6.60;;;;;;;;;;5116120;27;20129;-80
2023/05/04 03:27:47;;;;;;;14.57;6.80;;;;;;;;;;5140433;27;20406;-79
2023/05/04 03:30:13;;;;;;;13.73;6.75;;;;;;;;;;5136810;27;20050;-81
2023/05/04 03:32:40;;;;;;;13.60;6.93;;;;;;;;;;5104225;27;20034;-82
2023/05/04 03:35:06;;;;;;;11.23;6.10;;;;;;;;;;5136541;27;20043;-79
2023/05/04 03:37:33;;;;;;;14.73;6.10;;;;;;;;;;5136158;27;20061;-79
2023/05/04 03:39:59;;;;;;;11.38;6.43;;;;;;;;;;5135984;27;20137;-77
2023/05/04 03:42:25;;;;;;;15.45;6.22;;;;;;;;;;5154657;27;20043;-80
2023/05/04 03:44:51;;;;;;;14.35;6.35;;;;;;;;;;5136308;27;20384;-81
2023/05/04 03:47:17;;;;;;;12.25;6.10;;;;;;;;;;5123460;27;20046;-80
2023/05/04 03:49:43;;;;;;;14.13;5.93;;;;;;;;;;5116115;27;20515;-78
2023/05/04 03:52:09;;;;;;;14.98;6.43;;;;;;;;;;5133980;27;20092;-81
2023/05/04 03:54:35;;;;;;;15.73;6.80;;;;;;;;;;5136922;27;20046;-80
2023/05/04 03:57:03;;;;;;;11.98;6.38;;;;;;;;;;5135999;27;20062;-79
2023/05/04 03:59:29;;;;;;;13.63;6.18;;;;;;;;;;5104419;27;20122;-78
2023/05/04 04:01:55;;;;;;;17.10;6.10;;;;;;;;;;5135250;27;20050;-70
2023/05/04 04:04:21;;;;;;;15.35;6.72;;;;;;;;;;5154341;27;20039;-70
2023/05/04 04:06:48;;;;;;;11.45;6.15;;;;;;;;;;5153088;27;20483;-70
2023/05/04 04:09:14;;;;;;;14.02;6.38;;;;;;;;;;5135716;27;20065;-69
2023/05/04 04:11:40;;;;;;;11.43;5.45;;;;;;;;;;5152449;27;20039;-71
2023/05/04 04:14:07;;;;;;;13.00;6.18;;;;;;;;;;5154213;27;20055;-80
2023/05/04 04:16:33;;;;;;;14.23;7.32;;;;;;;;;;5132874;27;20041;-81
2023/05/04 04:19:00;;;;;;;15.18;6.63;;;;;;;;;;5153898;27;20035;-77
2023/05/04 04:21:26;;;;;;;12.90;6.15;;;;;;;;;;5122993;27;20483;-80
2023/05/04 04:23:52;;;;;;;13.82;6.90;;;;;;;;;;5133034;27;20047;-79
2023/05/04 04:26:20;;;;;;;12.93;5.85;;;;;;;;;;5143028;27;20060;-79
2023/05/04 04:28:49;;;;;;;14.88;6.38;;;;;;;;;;5135714;27;20126;-81
2023/05/04 04:31:17;;;;;;;15.98;6.60;;;;;;;;;;5128794;28;20070;-81
2023/05/04 04:33:43;;;;;;;14.25;6.45;;;;;;;;;;5115318;28;20458;-80
2023/05/04 04:36:11;;;;;;;13.02;6.03;;;;;;;;;;5134696;27;20033;-78
2023/05/04 04:38:39;;;;;;;13.98;6.25;;;;;;;;;;5123550;28;20516;-72
2023/05/04 04:41:05;;;;;;;12.10;5.75;;;;;;;;;;5132753;27;20114;-72
2023/05/04 04:43:32;;;;;;;16.88;6.82;;;;;;;;;;5135466;27;20047;-78
2023/05/04 04:45:58;;;;;;;15.60;7.00;;;;;;;;;;5135242;27;20070;-73
2023/05/04 04:48:24;;;;;;;11.18;5.80;;;;;;;;;;5135242;27;20064;-69
2023/05/04 04:50:51;;;;;;;14.82;6.50;;;;;;;;;;5153347;27;20556;-70
2023/05/04 04:53:17;;;;;;;13.68;6.13;;;;;;;;;;5139718;27;20495;-70
2023/05/04 04:55:44;;;;;;;12.45;6.22;;;;;;;;;;5153781;27;20035;-72
2023/05/04 04:58:10;;;;;;;15.68;6.85;;;;;;;;;;5134828;27;20057;-72
2023/05/04 05:00:36;;;;;;;12.55;6.53;;;;;;;;;;5108531;27;20529;-73
2023/05/04 05:03:03;;;;;;;11.63;6.20;;;;;;;;;;5138724;27;20122;-69
2023/05/04 05:05:29;;;;;;;12.02;6.13;;;;;;;;;;5130062;27;20051;-73
2023/05/04 05:07:55;;;;;;;14.48;6.85;;;;;;;;;;5150971;27;20049;-79
2023/05/04 05:10:22;;;;;;;13.55;6.47;;;;;;;;;;5125378;27;20038;-78
2023/05/04 05:12:51;;;;;;;12.65;6.38;;;;;;;;;;5143869;27;20050;-78
2023/05/04 05:15:18;;;;;;;12.20;6.13;;;;;;;;;;5153998;27;20062;-80
2023/05/04 05:17:44;;;;;;;14.10;6.30;;;;;;;;;;5139094;27;20457;-72
2023/05/04 05:20:10;;;;;;;13.15;6.25;;;;;;;;;;5138438;27;20041;-69
2023/05/04 05:22:40;;;;;;;12.90;6.43;;;;;;;;;;5153177;27;20035;-78
2023/05/04 05:25:07;;;;;;;13.73;6.50;;;;;;;;;;5156880;27;20118;-80
2023/05/04 05:27:33;;;;;;;13.30;6.55;;;;;;;;;;5138423;27;20073;-81
2023/05/04 05:30:00;;;;;;;14.15;6.60;;;;;;;;;;5138255;27;20163;-79
2023/05/04 05:32:26;;;;;;;14.50;6.30;;;;;;;;;;5138305;27;20091;-77
2023/05/04 05:34:52;;;;;;;15.50;6.45;;;;;;;;;;5138563;27;20548;-70
2023/05/04 05:37:19;;;;;;;13.05;6.25;;;;;;;;;;5156947;27;20035;-70
2023/05/04 05:39:45;;;;;;;12.77;6.75;;;;;;;;;;5137848;27;20046;-72
2023/05/04 05:42:11;;;;;;;15.25;6.55;;;;;;;;;;5124762;27;20051;-70
2023/05/04 05:44:37;;;;;;;12.05;6.15;;;;;;;;;;5136840;27;20035;-77
2023/05/04 05:47:04;;;;;;;14.68;6.35;;;;;;;;;;5156454;27;20074;-71
2023/05/04 05:49:31;;;;;;;13.70;7.07;;;;;;;;;;5138169;27;20450;-77
2023/05/04 05:52:00;;;;;;;12.80;5.97;;;;;;;;;;5156310;27;20042;-79
2023/05/04 05:54:27;;;;;;;16.77;7.07;;;;;;;;;;5123273;27;20035;-70
2023/05/04 05:56:53;;;;;;;14.48;6.60;;;;;;;;;;5138024;27;20072;-78
2023/05/04 05:59:19;;;;;;;13.77;6.60;;;;;;;;;;5123475;27;20035;-81
2023/05/04 06:01:45;;;;;;;18.48;7.20;;;;;;;;;;5106820;27;20552;-81
2023/05/04 06:04:11;;;;;;;14.82;6.70;;;;;;;;;;5143750;27;20515;-76
2023/05/04 06:06:37;;;;;;;11.07;6.22;;;;;;;;;;5135546;27;20417;-73
2023/05/04 06:09:04;;;;;;;13.80;6.80;;;;;;;;;;5127390;27;20510;-71
2023/05/04 06:11:30;;;;;;;10.88;6.20;;;;;;;;;;5136526;27;20047;-70
2023/05/04 06:13:57;;;;;;;13.13;6.15;;;;;;;;;;5137901;27;20047;-80
2023/05/04 06:16:23;;;;;;;14.23;6.72;;;;;;;;;;5120353;27;20074;-80
2023/05/04 06:18:50;;;;;;;14.63;6.28;;;;;;;;;;5137743;27;20476;-76
2023/05/04 06:21:16;;;;;;;13.70;6.80;;;;;;;;;;5120578;27;20487;-80
2023/05/04 06:23:44;;;;;;;11.93;6.45;;;;;;;;;;5115463;27;20095;-79
2023/05/04 06:26:10;;;;;;;12.95;7.07;;;;;;;;;;5142436;27;20051;-81
2023/05/04 06:28:36;;;;;;;15.25;6.72;;;;;;;;;;5137581;27;20046;-70
2023/05/04 06:31:02;;;;;;;13.32;6.30;;;;;;;;;;5136912;27;20110;-81
2023/05/04 06:33:29;;;;;;;10.88;6.38;;;;;;;;;;5155843;27;20039;-78
2023/05/04 06:35:56;;;;;;;11.27;6.10;;;;;;;;;;5152399;27;20479;-81
2023/05/04 06:38:22;;;;;;;12.90;6.47;;;;;;;;;;5144411;27;20513;-73
2023/05/04 06:40:48;;;;;;;11.48;6.10;;;;;;;;;;5155275;27;20546;-71
2023/05/04 06:43:14;;;;;;;10.23;6.25;;;;;;;;;;5155536;27;20081;-73
2023/05/04 06:45:41;;;;;;;10.85;6.05;;;;;;;;;;5106230;27;20068;-73
2023/05/04 06:48:07;;;;;;;13.00;6.53;;;;;;;;;;5149344;27;20042;-73
2023/05/04 06:50:34;;;;;;;13.05;6.18;;;;;;;;;;5146825;27;20080;-76
2023/05/04 06:53:06;;;;;;;11.75;6.00;;;;;;;;;;5136514;27;20046;-80
2023/05/04 06:55:32;;;;;;;12.65;6.30;;;;;;;;;;5137055;27;20039;-73
2023/05/04 06:57:58;;;;;;;13.60;6.28;;;;;;;;;;5133870;27;20034;-72
2023/05/04 07:00:24;;;;;;;12.90;6.50;;;;;;;;;;5124811;27;20042;-71
2023/05/04 07:02:52;;;;;;;8.90;5.60;;;;;;;;;;5135775;27;20043;-81
2023/05/04 07:05:18;;;;;;;10.95;6.35;;;;;;;;;;5134108;27;20495;-72
2023/05/04 07:07:44;;;;;;;12.02;6.18;;;;;;;;;;5134347;27;20039;-74
2023/05/04 07:10:10;;;;;;;11.73;6.30;;;;;;;;;;5135236;27;20275;-81
2023/05/04 07:12:37;;;;;;;9.45;5.70;;;;;;;;;;5124915;27;20070;-73
2023/05/04 07:15:03;;;;;;;10.52;6.70;;;;;;;;;;5133456;27;20039;-73
2023/05/04 07:17:30;;;;;;;12.60;6.00;;;;;;;;;;5126554;27;20035;-74
2023/05/04 07:19:56;;;;;;;11.65;6.35;;;;;;;;;;5148705;27;20109;-76
2023/05/04 07:22:22;;;;;;;13.13;5.72;;;;;;;;;;5137703;27;20440;-78
2023/05/04 07:24:48;;;;;;;11.75;6.40;;;;;;;;;;5154861;27;20054;-74
2023/05/04 07:27:14;;;;;;;8.80;5.45;;;;;;;;;;5154471;27;20039;-74
2023/05/04 07:29:41;;;;;;;13.48;6.05;;;;;;;;;;5154637;27;20042;-74
2023/05/04 07:32:07;;;;;;;10.80;5.97;;;;;;;;;;5136120;27;20038;-72
2023/05/04 07:34:34;;;;;;;11.68;5.68;;;;;;;;;;5130049;27;20035;-71
2023/05/04 07:37:03;;;;;;;12.20;5.95;;;;;;;;;;5134461;27;20047;-72
2023/05/04 07:39:29;;;;;;;9.65;5.82;;;;;;;;;;5138362;27;20130;-71
2023/05/04 07:41:55;;;;;;;10.55;6.15;;;;;;;;;;5143616;27;20043;-75
2023/05/04 07:44:22;;;;;;;13.93;5.97;;;;;;;;;;5130140;27;20051;-77
2023/05/04 07:46:48;;;;;;;11.02;5.93;;;;;;;;;;5124798;27;20060;-80
2023/05/04 07:49:14;;;;;;;8.45;5.47;;;;;;;;;;5104097;27;20096;-78
2023/05/04 07:51:40;;;;;;;12.98;5.95;;;;;;;;;;5154309;27;20038;-77
2023/05/04 07:54:06;;;;;;;9.95;5.65;;;;;;;;;;5154639;27;20048;-78
2023/05/04 07:56:32;;;;;;;10.70;5.47;;;;;;;;;;5135438;27;20034;-72
2023/05/04 07:58:58;;;;;;;13.90;5.80;;;;;;;;;;5143057;27;20035;-78
2023/05/04 08:01:25;;;;;;;12.43;5.53;;;;;;;;;;5115832;27;20130;-78
2023/05/04 08:03:51;;;;;;;7.57;5.30;;;;;;;;;;5135587;27;20046;-78
2023/05/04 08:06:17;;;;;;;10.25;5.53;;;;;;;;;;5139393;27;20604;-79
2023/05/04 08:08:43;;;;;;;11.18;5.70;;;;;;;;;;5135658;27;20034;-75
2023/05/04 08:11:13;;;;;;;8.63;5.28;;;;;;;;;;5122120;28;20047;-79
2023/05/04 08:13:40;;;;;;;10.25;5.40;;;;;;;;;;5139554;27;20538;-75
2023/05/04 08:16:06;;;;;;;8.63;5.20;;;;;;;;;;5115880;27;20410;-75
2023/05/04 08:18:32;;;;;;;10.35;5.55;;;;;;;;;;5134987;27;20344;-79
2023/05/04 08:20:59;;;;;;;7.93;5.00;;;;;;;;;;5133349;27;20088;-75
2023/05/04 08:23:25;;;;;;;11.90;5.53;;;;;;;;;;5149985;27;20039;-80
2023/05/04 08:25:51;;;;;;;9.30;5.15;;;;;;;;;;5139560;27;20111;-76
2023/05/04 08:28:17;;;;;;;8.00;5.28;;;;;;;;;;5124607;28;20059;-79
2023/05/04 08:30:43;;;;;;;9.63;5.60;;;;;;;;;;5129258;27;20043;-75
2023/05/04 08:33:09;;;;;;;8.38;4.90;;;;;;;;;;5142036;27;20072;-75
2023/05/04 08:35:36;;;;;;;7.70;5.28;;;;;;;;;;5157557;27;20534;-77
2023/05/04 08:38:03;;;;;;;9.27;5.10;;;;;;;;;;5139594;27;20066;-77
2023/05/04 08:40:29;;;;;;;10.75;4.88;;;;;;;;;;5125872;27;20043;-78
2023/05/04 08:42:56;;;;;;;10.85;4.50;;;;;;;;;;5124214;27;20057;-80
2023/05/04 08:45:22;;;;;;;8.27;4.68;;;;;;;;;;5122589;27;20053;-76
2023/05/04 08:47:48;;;;;;;6.82;4.32;;;;;;;;;;5136780;27;20053;-79
2023/05/04 08:50:14;;;;;;;8.07;4.35;;;;;;;;;;5147335;27;20490;-78
2023/05/04 08:52:48;;;;;;;13.23;5.13;;;;;;;;;;5158325;27;20057;-79
2023/05/04 08:55:15;;;;;;;7.80;4.90;;;;;;;;;;5115456;27;20046;-78
2023/05/04 08:57:43;;;;;;;8.18;4.70;;;;;;;;;;5153047;27;20099;-80
2023/05/04 09:00:11;;;;;;;7.30;4.80;;;;;;;;;;5127977;27;20502;-71
2023/05/04 09:02:37;;;;;;;8.98;4.60;;;;;;;;;;5145064;27;20041;-73
2023/05/04 09:05:07;;;;;;;9.48;4.40;;;;;;;;;;5124923;27;20503;-77
2023/05/04 09:07:33;;;;;;;8.60;4.65;;;;;;;;;;5127523;27;20049;-79
2023/05/04 09:10:00;;;;;;;8.70;4.57;;;;;;;;;;5116885;27;20035;-79
2023/05/04 09:12:26;;;;;;;9.73;5.00;;;;;;;;;;5136621;27;20481;-76
2023/05/04 09:14:52;;;;;;;7.68;4.75;;;;;;;;;;5123000;27;20042;-78
2023/05/04 09:17:26;;;;;;;7.22;4.15;;;;;;;;;;5157624;27;20039;-79
2023/05/04 09:20:02;;;;;;;9.50;4.50;;;;;;;;;;5138860;27;20042;-77
2023/05/04 09:22:28;;;;;;;;;;;;;;;;;;5153161;27;20035;-75
2023/05/04 09:24:54;;;;;;;;;;;;;;;;;;5139191;27;19915;-78
2023/05/04 09:27:21;;;;;;;7.30;3.97;;;;;;;;;;5135794;27;19915;-74
2023/05/04 09:29:53;;;;;;;9.70;4.50;;;;;;;;;;5145392;27;20054;-76
2023/05/04 09:32:19;;;;;;;9.02;4.20;;;;;;;;;;5142170;27;20039;-76
2023/05/04 09:34:46;;;;;;;7.95;4.10;;;;;;;;;;5138533;27;20071;-75
2023/05/04 09:37:12;;;;;;;6.85;4.30;;;;;;;;;;5107282;27;20035;-76
2023/05/04 09:39:48;;;;;;;7.68;4.45;;;;;;;;;;5141893;27;20122;-76
2023/05/04 09:42:19;;;;;;;11.27;4.72;;;;;;;;;;5124350;27;20050;-75
2023/05/04 09:44:45;;;;;;;7.43;4.53;;;;;;;;;;5123660;27;20051;-78
2023/05/04 09:47:11;;;;;;;9.40;4.70;;;;;;;;;;5156564;27;20118;-77
2023/05/04 09:49:38;;;;;;;9.38;4.50;;;;;;;;;;5133597;27;20039;-74
2023/05/04 09:52:05;;;;;;;7.57;4.55;;;;;;;;;;5128232;27;20065;-72
2023/05/04 09:54:34;;;;;;;9.38;5.15;;;;;;;;;;5139051;27;20114;-71
2023/05/04 09:57:05;;;;;;;8.75;5.00;;;;;;;;;;5117891;27;20049;-72
2023/05/04 09:59:32;;;;;;;7.50;4.70;;;;;;;;;;5132139;27;20490;-75
2023/05/04 10:01:59;;;;;;;11.50;4.57;;;;;;;;;;5125345;27;20130;-71
2023/05/04 10:04:25;;;;;;;7.13;4.40;;;;;;;;;;5156444;27;20042;-74
2023/05/04 10:06:53;;;;;;;8.45;4.38;;;;;;;;;;5131261;27;20134;-74
2023/05/04 10:09:19;;;;;;;9.07;4.82;;;;;;;;;;5135810;27;20050;-73
2023/05/04 10:11:45;;;;;;;8.50;4.57;;;;;;;;;;5135588;27;20114;-73
2023/05/04 10:14:12;;;;;;;7.53;4.20;;;;;;;;;;5110062;27;20039;-74
2023/05/04 10:16:49;;;;;;;6.82;3.95;;;;;;;;;;5137762;27;20046;-75
2023/05/04 10:19:33;;;;;;;8.60;4.70;;;;;;;;;;5127509;27;20043;-74
2023/05/04 10:22:07;;;;;;;8.20;3.78;;;;;;;;;;5141565;27;20121;-74
2023/05/04 10:24:33;;;;;;;7.93;4.57;;;;;;;;;;5137545;27;20505;-74
2023/05/04 10:27:05;;;;;;;8.82;4.10;;;;;;;;;;5156043;27;20038;-73
2023/05/04 10:29:32;;;;;;;8.90;3.90;;;;;;;;;;5099988;27;20080;-75
2023/05/04 10:31:58;;;;;;;7.22;3.20;;;;;;;;;;5130013;27;20043;-72
2023/05/04 10:34:29;;;;;;;11.52;4.03;;;;;;;;;;5100606;27;20039;-72
2023/05/04 10:36:55;;;;;;;7.32;3.92;;;;;;;;;;5147061;27;20414;-74
2023/05/04 10:39:23;;;;;;;8.82;4.65;;;;;;;;;;5136965;27;20078;-73
2023/05/04 10:42:05;;;;;;;9.50;4.45;;;;;;;;;;5155541;27;20411;-74
2023/05/04 10:44:32;;;;;;;8.27;3.95;;;;;;;;;;5155457;27;20072;-71
2023/05/04 10:46:59;;;;;;;7.55;3.80;;;;;;;;;;5155272;27;20074;-73
2023/05/04 10:49:25;;;;;;;8.05;4.05;;;;;;;;;;5153105;27;20035;-74
2023/05/04 10:52:04;;;;;;;7.25;3.58;;;;;;;;;;5143291;27;20437;-75
2023/05/04 10:54:30;;;;;;;5.65;3.45;;;;;;;;;;5155426;27;20061;-74
2023/05/04 10:57:27;;;;;;;7.47;4.20;;;;;;;;;;5145848;27;20136;-76
2023/05/04 10:59:58;;;;;;;5.90;3.95;;;;;;;;;;5112300;27;20059;-79
2023/05/04 11:02:25;;;;;;;5.70;3.97;;;;;;;;;;5110992;27;20042;-70
2023/05/04 11:05:00;;;;;;;8.85;3.53;;;;;;;;;;5136597;27;20042;-74
2023/05/04 11:07:39;;;;;;;8.13;4.35;;;;;;;;;;5108393;27;20091;-78
2023/05/04 11:10:07;;;;;;;7.95;3.75;;;;;;;;;;5116074;27;20047;-75
2023/05/04 11:12:33;;;;;;;8.23;4.05;;;;;;;;;;5145424;27;20157;-72
2023/05/04 11:15:18;;;;;;;7.72;3.50;;;;;;;;;;5154494;27;20034;-75
2023/05/04 11:17:45;;;;;;;7.38;3.40;;;;;;;;;;5154650;27;20479;-74
2023/05/04 11:20:11;;;;;;;6.75;3.50;;;;;;;;;;5154965;27;20047;-75
2023/05/04 11:22:37;;;;;;;9.70;3.60;;;;;;;;;;5136516;27;20539;-73
2023/05/04 11:25:04;;;;;;;8.30;3.13;;;;;;;;;;5154557;27;20038;-72
2023/05/04 11:27:30;;;;;;;7.50;3.33;;;;;;;;;;5154913;27;20038;-76
2023/05/04 11:29:57;;;;;;;6.57;3.70;;;;;;;;;;5154395;27;20034;-76
2023/05/04 11:32:32;;;;;;;10.02;3.47;;;;;;;;;;5152173;27;20046;-71
2023/05/04 11:34:58;;;;;;;8.77;3.80;;;;;;;;;;5133871;27;20064;-72
2023/05/04 11:37:27;;;;;;;6.85;3.47;;;;;;;;;;5115463;27;20062;-74
2023/05/04 11:39:53;;;;;;;7.53;3.22;;;;;;;;;;5133600;27;20122;-72
2023/05/04 11:42:20;;;;;;;5.93;3.10;;;;;;;;;;5134063;27;20047;-74
2023/05/04 11:44:46;;;;;;;5.75;3.10;;;;;;;;;;5121458;27;20049;-74
2023/05/04 11:47:13;;;;;;;6.30;3.50;;;;;;;;;;5136200;27;20084;-74
2023/05/04 11:49:39;;;;;;;7.45;3.08;;;;;;;;;;5121431;27;20046;-74
2023/05/04 11:52:06;;;;;;;5.57;3.10;;;;;;;;;;5124938;27;20128;-73
2023/05/04 11:54:32;;;;;;;7.03;2.97;;;;;;;;;;5150691;27;20042;-73
2023/05/04 11:57:00;;;;;;;7.90;2.95;;;;;;;;;;5135628;27;20117;-73
2023/05/04 11:59:26;;;;;;;5.75;2.92;;;;;;;;;;5154552;27;20039;-72
2023/05/04 12:01:52;;;;;;;6.82;2.47;;;;;;;;;;5128967;27;20604;-71
2023/05/04 12:04:18;;;;;;;6.78;2.80;;;;;;;;;;5111346;27;20039;-72
2023/05/04 12:06:45;;;;;;;6.35;3.10;;;;;;;;;;5154071;27;20035;-72
2023/05/04 12:09:11;;;;;;;9.30;3.10;;;;;;;;;;5134812;27;20046;-72
2023/05/04 12:11:40;;;;;;;8.65;3.00;;;;;;;;;;5139348;27;20066;-71
2023/05/04 12:14:06;;;;;;;4.82;2.63;;;;;;;;;;5135098;27;20106;-74
2023/05/04 12:16:32;;;;;;;8.93;3.17;;;;;;;;;;5133767;27;20043;-73
2023/05/04 12:19:06;;;;;;;5.47;2.75;;;;;;;;;;5122933;27;20049;-74
2023/05/04 12:21:33;;;;;;;6.57;2.58;;;;;;;;;;5154002;27;20077;-73
2023/05/04 12:23:59;;;;;;;6.55;2.65;;;;;;;;;;5153614;27;20569;-73
2023/05/04 12:26:26;;;;;;;4.28;2.53;;;;;;;;;;5118530;27;20073;-74
2023/05/04 12:28:52;;;;;;;4.43;2.55;;;;;;;;;;5152514;27;20078;-73
2023/05/04 12:31:18;;;;;;;7.75;3.13;;;;;;;;;;5141085;27;20042;-71
2023/05/04 12:33:44;;;;;;;6.22;2.75;;;;;;;;;;5153750;27;20160;-73
2023/05/04 12:36:11;;;;;;;7.82;2.97;;;;;;;;;;5135246;27;20670;-73
2023/05/04 12:38:37;;;;;;;5.97;2.80;;;;;;;;;;5135442;27;20035;-72
2023/05/04 12:41:03;;;;;;;6.53;2.88;;;;;;;;;;5135373;27;20486;-75
2023/05/04 12:43:32;;;;;;;4.95;2.72;;;;;;;;;;5135391;27;20047;-73
2023/05/04 12:45:58;;;;;;;5.93;2.75;;;;;;;;;;5132916;27;20114;-73
2023/05/04 12:48:27;;;;;;;6.63;3.00;;;;;;;;;;5141677;27;20038;-74
2023/05/04 12:50:53;;;;;;;6.88;3.20;;;;;;;;;;5138469;27;20043;-74
2023/05/04 12:53:21;;;;;;;6.88;3.13;;;;;;;;;;5121277;27;20046;-71
2023/05/04 12:55:47;;;;;;;6.55;3.42;;;;;;;;;;5140400;27;20483;-72
2023/05/04 12:58:13;;;;;;;6.05;3.70;;;;;;;;;;5119226;27;20049;-73
2023/05/04 13:00:40;;;;;;;6.88;3.30;;;;;;;;;;5142821;27;20399;-73
2023/05/04 13:03:06;;;;;;;8.32;3.60;;;;;;;;;;5097270;27;20047;-74
2023/05/04 13:05:32;;;;;;;6.15;3.08;;;;;;;;;;5124417;27;20383;-74
2023/05/04 13:07:58;;;;;;;5.57;3.20;;;;;;;;;;5151823;27;20376;-74
2023/05/04 13:10:24;;;;;;;8.13;3.50;;;;;;;;;;5132818;27;20078;-77
2023/05/04 13:12:51;;;;;;;7.70;3.20;;;;;;;;;;5146564;27;20616;-73
2023/05/04 13:15:17;;;;;;;6.65;3.35;;;;;;;;;;5134563;27;20139;-72
2023/05/04 13:17:43;;;;;;;5.22;3.20;;;;;;;;;;5153725;27;20183;-74
2023/05/04 13:20:10;;;;;;;4.47;3.25;;;;;;;;;;5154457;27;20041;-74
2023/05/04 13:22:36;;;;;;;7.35;3.47;;;;;;;;;;5129150;27;20066;-72
2023/05/04 13:25:02;;;;;;;7.07;3.28;;;;;;;;;;5131232;27;20125;-73
2023/05/04 13:27:29;;;;;;;7.18;3.03;;;;;;;;;;5138903;27;20061;-72
2023/05/04 13:29:57;;;;;;;9.30;3.20;;;;;;;;;;5128675;27;20050;-72
2023/05/04 13:32:26;;;;;;;5.38;3.10;;;;;;;;;;5125918;27;20082;-72
2023/05/04 13:34:53;;;;;;;5.80;3.00;;;;;;;;;;5148808;27;20264;-74
2023/05/04 13:37:19;;;;;;;5.43;3.08;;;;;;;;;;5151500;27;20056;-71
2023/05/04 13:39:45;;;;;;;5.93;3.00;;;;;;;;;;5149666;27;20058;-74
2023/05/04 13:42:12;;;;;;;7.40;3.00;;;;;;;;;;5131029;27;20130;-74
2023/05/04 13:44:43;;;;;;;4.50;2.90;;;;;;;;;;5133152;27;20499;-72
2023/05/04 13:47:10;;;;;;;7.45;2.83;;;;;;;;;;5136053;27;20043;-72
2023/05/04 13:49:36;;;;;;;7.03;3.17;;;;;;;;;;5132024;27;20039;-74
2023/05/04 13:52:02;;;;;;;5.70;2.88;;;;;;;;;;5135896;27;20090;-71
2023/05/04 13:54:28;;;;;;;4.97;2.80;;;;;;;;;;5135918;27;20035;-71
2023/05/04 13:56:54;;;;;;;6.68;3.00;;;;;;;;;;5144427;27;20084;-73
2023/05/04 13:59:20;;;;;;;6.32;3.22;;;;;;;;;;5137639;27;20042;-74
2023/05/04 14:01:46;;;;;;;6.53;3.65;;;;;;;;;;5150584;27;20530;-74
2023/05/04 14:04:13;;;;;;;5.88;3.20;;;;;;;;;;5129702;27;20046;-74
2023/05/04 14:06:39;;;;;;;5.47;3.13;;;;;;;;;;5137288;27;20380;-73
2023/05/04 14:09:05;;;;;;;7.82;3.38;;;;;;;;;;5127822;27;20047;-73
2023/05/04 14:11:31;;;;;;;6.00;2.90;;;;;;;;;;5137778;27;20491;-74
2023/05/04 14:13:57;;;;;;;8.00;3.25;;;;;;;;;;5147787;27;20035;-71
2023/05/04 14:16:23;;;;;;;7.45;3.20;;;;;;;;;;5117620;27;20432;-74
2023/05/04 14:18:49;;;;;;;8.82;3.33;;;;;;;;;;5137462;27;20058;-74
2023/05/04 14:21:15;;;;;;;7.05;3.80;;;;;;;;;;5155770;27;20035;-77
2023/05/04 14:23:43;;;;;;;6.47;3.30;;;;;;;;;;5116643;27;20039;-75
2023/05/04 14:26:10;;;;;;;7.35;3.70;;;;;;;;;;5142128;27;20115;-76
2023/05/04 14:28:36;;;;;;;9.60;3.85;;;;;;;;;;5117021;27;20475;-77
2023/05/04 14:31:07;;;;;;;7.32;3.40;;;;;;;;;;5139763;27;20035;-74
2023/05/04 14:33:37;;;;;;;6.20;3.40;;;;;;;;;;5124768;27;20058;-73
2023/05/04 14:36:09;;;;;;;9.52;3.72;;;;;;;;;;5131055;27;20035;-73